Time;durP1;ratioP1;P1;durP2;ratioP2;P2;SDS_P1;SDS_P2;PMS_P1;PMS_P2;Temp;Humidity;BMP_temperature;BMP_pressure;BME280_temperature;BME280_humidity;BME280_pressure;Samples;Min_cycle;Max_cycle;Signal;HPM_P1;HPM_P2
2022/07/01 00:00:37;;;;;;;;;;;;;;;27.83;34.49;100594.41;5087126;28;1055;-33
2022/07/01 00:03:03;;;;;;;;;;;;;;;27.83;34.25;100584.44;5076096;28;1909;-32
2022/07/01 00:05:29;;;;;;;;;;;;;;;27.92;34.47;100579.75;5075538;28;1151;-32
2022/07/01 00:07:54;;;;;;;;;;;;;;;27.85;35.20;100579.69;5080028;28;981;-32
2022/07/01 00:10:19;;;;;;;;;;;;;;;27.93;34.74;100589.53;5082926;28;1067;-32
2022/07/01 00:12:45;;;;;;;;;;;;;;;27.98;34.72;100595.19;5078940;28;1140;-30
2022/07/01 00:15:10;;;;;;;;;;;;;;;27.99;34.73;100602.25;5084881;28;1095;-34
2022/07/01 00:17:35;;;;;;;;;;;;;;;27.95;34.91;100592.88;5075574;28;1147;-33
2022/07/01 00:20:01;;;;;;;;;;;;;;;27.97;34.28;100587.28;5075939;28;1028;-33
2022/07/01 00:22:27;;;;;;;;;;;;;;;27.94;34.47;100588.50;5076338;28;1910;-30
2022/07/01 00:24:53;;;;;;;;;;;;;;;27.90;34.82;100595.31;5079804;28;1028;-29
2022/07/01 00:27:18;;;;;;;;;;;;;;;27.95;34.58;100592.88;5083523;28;1021;-32
2022/07/01 00:29:44;;;;;;;;;;;;;;;27.97;34.80;100587.28;5081820;28;1210;-29
2022/07/01 00:32:09;;;;;;;;;;;;;;;27.99;34.75;100582.53;5064502;28;878;-30
2022/07/01 00:34:34;;;;;;;;;;;;;;;27.94;34.54;100582.25;5079735;28;1214;-31
2022/07/01 00:37:00;;;;;;;;;;;;;;;27.89;34.41;100577.44;5079254;28;979;-34
2022/07/01 00:39:25;;;;;;;;;;;;;;;27.88;34.66;100583.84;5079807;28;1028;-30
2022/07/01 00:41:50;;;;;;;;;;;;;;;27.92;34.84;100585.16;5079686;28;1910;-30
2022/07/01 00:44:17;;;;;;;;;;;;;;;27.92;34.76;100590.56;5079195;28;974;-29
2022/07/01 00:46:42;;;;;;;;;;;;;;;27.92;34.34;100585.16;5079441;28;950;-32
2022/07/01 00:49:07;;;;;;;;;;;;;;;28.01;34.34;100579.63;5079602;28;965;-30
2022/07/01 00:51:32;;;;;;;;;;;;;;;27.98;34.32;100576.25;5078833;28;1036;-31
2022/07/01 00:53:58;;;;;;;;;;;;;;;27.95;34.53;100570.41;5079655;28;985;-29
2022/07/01 00:56:24;;;;;;;;;;;;;;;27.93;34.82;100569.75;5065149;28;1029;-31
2022/07/01 00:58:49;;;;;;;;;;;;;;;27.91;34.66;100574.53;5061824;28;993;-30
2022/07/01 01:01:14;;;;;;;;;;;;;;;27.91;34.72;100566.44;5078958;28;1898;-34
2022/07/01 01:03:39;;;;;;;;;;;;;;;27.83;34.86;100568.22;5078948;28;1211;-31
2022/07/01 01:06:05;;;;;;;;;;;;;;;27.93;34.46;100564.34;5078937;28;1132;-32
2022/07/01 01:08:30;;;;;;;;;;;;;;;27.96;34.26;100564.78;5079013;28;1044;-33
2022/07/01 01:10:55;;;;;;;;;;;;;;;27.92;34.30;100568.94;5078984;28;1187;-31
2022/07/01 01:13:21;;;;;;;;;;;;;;;27.82;34.85;100565.72;5067940;28;1046;-29
2022/07/01 01:15:46;;;;;;;;;;;;;;;27.85;34.92;100570.72;5083570;28;1202;-35
2022/07/01 01:18:11;;;;;;;;;;;;;;;27.97;34.45;100566.50;5079080;28;962;-29
2022/07/01 01:20:37;;;;;;;;;;;;;;;27.91;34.12;100561.84;5079087;28;1016;-33
2022/07/01 01:23:03;;;;;;;;;;;;;;;27.91;34.05;100561.84;5086471;28;1955;-31
2022/07/01 01:25:28;;;;;;;;;;;;;;;27.94;34.30;100566.03;5078727;28;1040;-33
2022/07/01 01:27:55;;;;;;;;;;;;;;;27.86;34.37;100565.13;5078831;28;1081;-31
2022/07/01 01:30:20;;;;;;;;;;;;;;;27.87;34.43;100565.97;5078517;28;992;-29
2022/07/01 01:32:45;;;;;;;;;;;;;;;27.89;34.77;100561.22;5078855;28;1037;-31
2022/07/01 01:35:13;;;;;;;;;;;;;;;27.86;34.33;100557.00;5077864;28;855;-31
2022/07/01 01:37:38;;;;;;;;;;;;;;;27.94;34.33;100566.03;5083610;28;1010;-29
2022/07/01 01:40:04;;;;;;;;;;;;;;;27.96;34.51;100558.56;5096504;28;1202;-34
2022/07/01 01:42:30;;;;;;;;;;;;;;;27.93;34.35;100562.50;5098050;28;1969;-31
2022/07/01 01:44:56;;;;;;;;;;;;;;;27.93;34.44;100554.38;5080120;28;1451;-31
2022/07/01 01:47:21;;;;;;;;;;;;;;;27.92;34.57;100555.41;5082857;28;1075;-33
2022/07/01 01:49:46;;;;;;;;;;;;;;;27.93;34.41;100551.66;5082587;28;956;-31
2022/07/01 01:52:12;;;;;;;;;;;;;;;27.99;34.74;100559.00;5079027;28;979;-33
2022/07/01 01:54:37;;;;;;;;;;;;;;;27.95;34.63;100562.28;5078383;28;977;-31
2022/07/01 01:57:05;;;;;;;;;;;;;;;28.00;34.61;100581.47;5078664;28;1183;-30
2022/07/01 01:59:30;;;;;;;;;;;;;;;27.80;35.03;100578.56;5078022;28;1017;-30
2022/07/01 02:01:56;;;;;;;;;;;;;;;27.86;34.91;100580.53;5080323;28;1898;-31
2022/07/01 02:04:23;;;;;;;;;;;;;;;27.82;34.82;100579.22;5088404;28;1000;-32
2022/07/01 02:06:48;;;;;;;;;;;;;;;27.83;35.08;100581.72;5077870;28;977;-30
2022/07/01 02:09:14;;;;;;;;;;;;;;;27.89;34.73;100582.84;5078112;28;1131;-30
2022/07/01 02:11:39;;;;;;;;;;;;;;;27.99;34.32;100579.81;5078211;28;958;-30
2022/07/01 02:14:04;;;;;;;;;;;;;;;27.94;34.66;100580.41;5077499;28;925;-29
2022/07/01 02:16:30;;;;;;;;;;;;;;;27.93;34.72;100578.72;5078466;28;1052;-30
2022/07/01 02:18:55;;;;;;;;;;;;;;;27.92;35.04;100582.44;5077942;28;981;-31
2022/07/01 02:21:20;;;;;;;;;;;;;;;27.84;34.92;100593.38;5078319;28;1890;-31
2022/07/01 02:23:45;;;;;;;;;;;;;;;27.96;34.61;100585.63;5077943;28;1048;-33
2022/07/01 02:26:11;;;;;;;;;;;;;;;27.92;34.54;100587.84;5077450;28;973;-32
2022/07/01 02:28:36;;;;;;;;;;;;;;;27.98;34.58;100587.09;5077407;28;985;-32
2022/07/01 02:31:02;;;;;;;;;;;;;;;27.96;34.17;100586.44;5077380;28;997;-33
2022/07/01 02:33:27;;;;;;;;;;;;;;;27.92;34.10;100587.84;5077626;28;957;-34
2022/07/01 02:35:53;;;;;;;;;;;;;;;27.98;34.21;100589.78;5077514;28;973;-35
2022/07/01 02:38:18;;;;;;;;;;;;;;;27.99;34.46;100586.03;5077146;28;1199;-31
2022/07/01 02:40:43;;;;;;;;;;;;;;;28.03;34.22;100582.97;5077674;28;1064;-31
2022/07/01 02:43:09;;;;;;;;;;;;;;;27.98;34.72;100586.22;5077164;28;1914;-31
2022/07/01 02:45:34;;;;;;;;;;;;;;;27.90;34.61;100591.75;5077054;28;965;-32
2022/07/01 02:48:01;;;;;;;;;;;;;;;27.97;34.03;100587.28;5085592;28;1151;-31
2022/07/01 02:50:27;;;;;;;;;;;;;;;27.95;34.47;100582.06;5076490;28;985;-30
2022/07/01 02:52:52;;;;;;;;;;;;;;;27.91;34.76;100591.56;5077451;28;1005;-30
2022/07/01 02:55:17;;;;;;;;;;;;;;;27.98;34.29;100592.50;5076722;28;1187;-29
2022/07/01 02:57:43;;;;;;;;;;;;;;;27.98;34.51;100589.78;5077282;28;1096;-31
2022/07/01 03:00:09;;;;;;;;;;;;;;;27.97;34.04;100598.09;5076884;28;1190;-31
2022/07/01 03:02:35;;;;;;;;;;;;;;;27.98;34.39;100588.94;5076785;28;1909;-33
2022/07/01 03:05:00;;;;;;;;;;;;;;;27.98;34.41;100602.47;5076442;28;905;-31
2022/07/01 03:07:26;;;;;;;;;;;;;;;27.95;34.26;100597.44;5076821;28;975;-32
2022/07/01 03:09:51;;;;;;;;;;;;;;;28.00;34.22;100603.09;5076919;28;1008;-32
2022/07/01 03:12:27;;;;;;;;;;;;;;;28.02;34.42;100609.16;5076778;28;1226;-30
2022/07/01 03:14:52;;;;;;;;;;;;;;;27.78;35.10;100604.97;5076286;28;1649;-34
2022/07/01 03:17:18;;;;;;;;;;;;;;;27.39;36.97;100605.94;5083791;28;953;-32
2022/07/01 03:19:43;;;;;;;;;;;;;;;27.16;36.44;100605.22;5077055;28;953;-35
2022/07/01 03:22:09;;;;;;;;;;;;;;;26.75;39.18;100602.75;5077903;28;1902;-33
2022/07/01 03:24:34;;;;;;;;;;;;;;;26.94;39.22;100600.53;5076998;28;1219;-38
2022/07/01 03:26:59;;;;;;;;;;;;;;;27.23;39.03;100598.03;5076490;28;961;-37
2022/07/01 03:29:24;;;;;;;;;;;;;;;27.14;39.02;100606.22;5079352;28;1100;-33
2022/07/01 03:31:50;;;;;;;;;;;;;;;26.75;40.64;100607.31;5076454;28;985;-34
2022/07/01 03:34:15;;;;;;;;;;;;;;;26.27;42.35;100603.84;5076785;28;949;-34
2022/07/01 03:36:40;;;;;;;;;;;;;;;26.17;42.35;100605.94;5076340;28;987;-33
2022/07/01 03:39:06;;;;;;;;;;;;;;;26.35;41.85;100605.66;5076407;28;977;-32
2022/07/01 03:41:31;;;;;;;;;;;;;;;26.03;41.88;100605.69;5076323;28;1905;-30
2022/07/01 03:43:56;;;;;;;;;;;;;;;26.03;43.12;100600.28;5093614;28;950;-31
2022/07/01 03:46:21;;;;;;;;;;;;;;;26.29;43.20;100612.56;5079025;28;996;-32
2022/07/01 03:48:47;;;;;;;;;;;;;;;26.72;41.14;100615.78;5076252;28;961;-30
2022/07/01 03:51:12;;;;;;;;;;;;;;;26.70;42.15;100620.50;5078098;28;1659;-33
2022/07/01 03:56:21;;;;;;;;;;;;;;;26.60;41.41;100624.31;5079163;28;886;-32
2022/07/01 03:58:46;;;;;;;;;;;;;;;26.30;42.45;100624.19;5076416;28;973;-31
2022/07/01 04:01:11;;;;;;;;;;;;;;;26.39;42.24;100630.41;5075909;28;1914;-30
2022/07/01 04:03:37;;;;;;;;;;;;;;;26.62;42.42;100616.03;5076614;28;1242;-32
2022/07/01 04:06:02;;;;;;;;;;;;;;;26.40;43.42;100615.88;5075757;28;1194;-35
2022/07/01 04:08:27;;;;;;;;;;;;;;;26.33;43.11;100623.00;5075676;28;850;-36
2022/07/01 04:10:54;;;;;;;;;;;;;;;25.89;44.30;100626.13;5076414;28;1175;-33
2022/07/01 04:13:20;;;;;;;;;;;;;;;26.10;43.78;100621.97;5076396;28;1062;-36
2022/07/01 04:15:46;;;;;;;;;;;;;;;26.14;43.19;100625.97;5075771;28;938;-31
2022/07/01 04:18:11;;;;;;;;;;;;;;;25.95;40.94;100627.31;5076106;28;1053;-33
2022/07/01 04:20:36;;;;;;;;;;;;;;;25.92;41.17;100620.41;5079820;28;1413;-31
2022/07/01 04:23:01;;;;;;;;;;;;;;;25.95;41.07;100630.00;5076553;28;1969;-38
2022/07/01 04:25:29;;;;;;;;;;;;;;;25.97;42.10;100627.13;5076225;28;1131;-38
2022/07/01 04:27:55;;;;;;;;;;;;;;;26.06;40.95;100636.81;5075786;28;2435;-32
2022/07/01 04:30:20;;;;;;;;;;;;;;;26.56;39.19;100635.66;5075689;28;1891;-33
2022/07/01 04:32:45;;;;;;;;;;;;;;;26.69;39.09;100635.88;5075597;28;2094;-35
2022/07/01 04:35:12;;;;;;;;;;;;;;;26.81;39.40;100638.13;5081089;28;2151;-33
2022/07/01 04:37:38;;;;;;;;;;;;;;;26.86;39.04;100633.84;5081198;28;2100;-37
2022/07/01 04:40:04;;;;;;;;;;;;;;;26.92;38.28;100632.28;5076149;28;1955;-31
2022/07/01 04:42:29;;;;;;;;;;;;;;;26.93;37.89;100627.69;5075676;28;1954;-36
2022/07/01 04:44:55;;;;;;;;;;;;;;;26.92;37.29;100637.69;5075484;28;2019;-34
2022/07/01 04:47:22;;;;;;;;;;;;;;;26.89;37.15;100625.38;5084399;28;971;-35
2022/07/01 04:49:47;;;;;;;;;;;;;;;26.90;37.35;100631.63;5075895;28;1040;-34
2022/07/01 04:52:12;;;;;;;;;;;;;;;26.92;37.06;100636.81;5079854;28;869;-32
2022/07/01 04:54:38;;;;;;;;;;;;;;;26.97;37.86;100645.22;5086810;28;961;-31
2022/07/01 04:57:03;;;;;;;;;;;;;;;27.04;37.65;100642.66;5076169;28;1167;-33
2022/07/01 04:59:28;;;;;;;;;;;;;;;27.10;37.78;100639.19;5075261;28;894;-34
2022/07/01 05:01:54;;;;;;;;;;;;;;;27.03;37.68;100644.50;5088738;28;1913;-33
2022/07/01 05:04:19;;;;;;;;;;;;;;;26.97;37.02;100645.22;5075955;28;1249;-35
2022/07/01 05:06:45;;;;;;;;;;;;;;;26.93;37.01;100641.19;5075468;28;965;-33
2022/07/01 05:09:11;;;;;;;;;;;;;;;26.98;36.76;100647.72;5076925;28;1131;-35
2022/07/01 05:11:36;;;;;;;;;;;;;;;26.98;38.65;100652.28;5088248;28;819;-33
2022/07/01 05:14:01;;;;;;;;;;;;;;;26.94;37.29;100653.69;5089470;28;2428;-33
2022/07/01 05:16:27;;;;;;;;;;;;;;;26.92;37.31;100644.94;5079165;28;1059;-33
2022/07/01 05:24:19;;;;;;;;;;;;;;;27.12;37.87;100645.25;5078621;28;985;-32
2022/07/01 05:26:45;;;;;;;;;;;;;;;27.08;37.89;100644.78;5079116;28;1119;-35
2022/07/01 05:29:10;;;;;;;;;;;;;;;26.98;37.93;100650.44;5078850;28;989;-32
2022/07/01 05:31:36;;;;;;;;;;;;;;;27.04;37.73;100648.03;5079506;28;1163;-32
2022/07/01 05:34:01;;;;;;;;;;;;;;;26.97;37.68;100647.91;5079049;28;1072;-36
2022/07/01 05:36:26;;;;;;;;;;;;;;;26.85;37.64;100661.00;5085536;28;985;-31
2022/07/01 05:38:52;;;;;;;;;;;;;;;26.88;37.40;100663.34;5078958;28;1056;-36
2022/07/01 05:41:17;;;;;;;;;;;;;;;26.89;37.89;100662.34;5086970;28;1890;-34
2022/07/01 05:43:42;;;;;;;;;;;;;;;27.04;38.02;100654.28;5078923;28;1064;-32
2022/07/01 05:46:08;;;;;;;;;;;;;;;27.02;37.57;100656.34;5078523;28;977;-34
2022/07/01 05:48:33;;;;;;;;;;;;;;;26.84;37.47;100656.66;5077433;28;2318;-33
2022/07/01 05:50:58;;;;;;;;;;;;;;;22.37;44.06;100651.66;5078594;28;1936;-34
2022/07/01 05:53:24;;;;;;;;;;;;;;;20.49;43.71;100638.94;5078322;28;1873;-31
2022/07/01 05:55:50;;;;;;;;;;;;;;;20.27;48.25;100641.75;5078220;28;2254;-33
2022/07/01 05:58:15;;;;;;;;;;;;;;;20.39;51.35;100637.09;5080944;28;1821;-34
2022/07/01 06:00:43;;;;;;;;;;;;;;;20.37;52.68;100638.25;5078106;28;2233;-31
2022/07/01 06:03:12;;;;;;;;;;;;;;;20.64;52.80;100637.53;5078045;28;1918;-34
2022/07/01 06:05:37;;;;;;;;;;;;;;;20.65;52.57;100638.38;5074760;28;1140;-34
2022/07/01 06:08:03;;;;;;;;;;;;;;;20.09;54.77;100636.25;5078188;28;1016;-34
2022/07/01 06:10:28;;;;;;;;;;;;;;;19.35;57.89;100647.09;5078517;28;969;-31
2022/07/01 06:12:54;;;;;;;;;;;;;;;18.98;59.05;100651.06;5078015;28;962;-32
2022/07/01 06:15:19;;;;;;;;;;;;;;;18.83;59.83;100643.38;5059992;28;1092;-31
2022/07/01 06:17:44;;;;;;;;;;;;;;;18.82;60.31;100649.69;5077826;28;1029;-31
2022/07/01 06:20:10;;;;;;;;;;;;;;;18.70;60.79;100645.41;5078164;28;1020;-35
2022/07/01 06:22:35;;;;;;;;;;;;;;;20.20;59.02;100648.63;5080896;28;1905;-32
2022/07/01 06:25:00;;;;;;;;;;;;;;;22.87;51.23;100649.41;5078060;28;1075;-31
2022/07/01 06:27:26;;;;;;;;;;;;;;;19.34;57.34;100650.72;5077231;28;1091;-33
2022/07/01 06:29:51;;;;;;;;;;;;;;;18.55;59.61;100650.19;5077962;28;1230;-30
2022/07/01 06:32:17;;;;;;;;;;;;;;;20.40;56.68;100654.00;5077974;28;1111;-31
2022/07/01 06:34:42;;;;;;;;;;;;;;;21.86;49.78;100654.78;5094655;28;1218;-36
2022/07/01 06:37:07;;;;;;;;;;;;;;;19.47;57.88;100660.34;5079858;28;1020;-30
2022/07/01 06:39:32;;;;;;;;;;;;;;;18.87;59.17;100664.47;5076982;28;2403;-34
2022/07/01 06:41:58;;;;;;;;;;;;;;;20.73;56.47;100659.03;5082275;28;1985;-34
2022/07/01 06:44:23;;;;;;;;;;;;;;;21.63;50.17;100663.19;5077256;28;2080;-32
2022/07/01 06:46:48;;;;;;;;;;;;;;;19.39;58.10;100656.50;5077126;28;1934;-35
2022/07/01 06:49:14;;;;;;;;;;;;;;;18.91;59.97;100655.22;5079331;28;1895;-34
2022/07/01 06:51:39;;;;;;;;;;;;;;;18.70;60.80;100651.56;5081581;28;1758;-31
2022/07/01 06:54:04;;;;;;;;;;;;;;;19.97;59.74;100653.34;5082208;28;1880;-34
2022/07/01 06:56:30;;;;;;;;;;;;;;;22.58;50.28;100653.16;5077373;28;1151;-32
2022/07/01 06:58:55;;;;;;;;;;;;;;;19.54;58.22;100653.47;5077403;28;921;-32
2022/07/01 07:01:21;;;;;;;;;;;;;;;18.91;60.36;100650.75;5077142;28;1905;-34
2022/07/01 07:03:46;;;;;;;;;;;;;;;18.72;61.22;100649.63;5076984;28;1013;-32
2022/07/01 07:06:11;;;;;;;;;;;;;;;20.64;56.77;100653.56;5076596;28;915;-30
2022/07/01 07:08:38;;;;;;;;;;;;;;;21.45;51.41;100652.44;5077001;28;1053;-33
2022/07/01 07:11:03;;;;;;;;;;;;;;;19.46;58.69;100659.50;5090598;28;1155;-35
2022/07/01 07:13:28;;;;;;;;;;;;;;;18.88;60.57;100651.00;5077014;28;981;-34
2022/07/01 07:15:54;;;;;;;;;;;;;;;18.75;61.10;100642.34;5077081;28;977;-34
2022/07/01 07:18:19;;;;;;;;;;;;;;;18.68;61.72;100644.69;5076414;28;1052;-35
2022/07/01 07:20:44;;;;;;;;;;;;;;;18.67;61.89;100648.31;5076638;28;981;-35
2022/07/01 07:23:10;;;;;;;;;;;;;;;20.04;60.07;100657.16;5076732;28;1956;-35
2022/07/01 07:25:35;;;;;;;;;;;;;;;22.39;50.75;100660.34;5087141;28;1153;-32
2022/07/01 07:28:00;;;;;;;;;;;;;;;19.01;58.62;100660.63;5077446;28;1123;-34
2022/07/01 07:30:25;;;;;;;;;;;;;;;18.30;60.68;100668.22;5076594;28;1056;-36
2022/07/01 07:32:51;;;;;;;;;;;;;;;21.17;53.92;100666.59;5075927;28;985;-31
2022/07/01 07:35:16;;;;;;;;;;;;;;;20.45;55.05;100670.44;5076360;28;1036;-34
2022/07/01 07:37:41;;;;;;;;;;;;;;;19.24;59.04;100665.81;5083753;28;1613;-35
2022/07/01 07:40:09;;;;;;;;;;;;;;;18.73;60.82;100669.13;5076298;28;961;-34
2022/07/01 07:42:35;;;;;;;;;;;;;;;18.65;62.18;100671.59;5058161;28;1945;-34
2022/07/01 07:45:01;;;;;;;;;;;;;;;21.49;53.08;100676.06;5076274;28;1183;-32
2022/07/01 07:47:26;;;;;;;;;;;;;;;20.28;55.30;100677.31;5076657;28;1009;-35
2022/07/01 07:49:51;;;;;;;;;;;;;;;19.12;59.47;100665.91;5075872;28;1190;-34
2022/07/01 07:52:17;;;;;;;;;;;;;;;18.68;61.19;100660.66;5078744;28;876;-34
2022/07/01 07:54:42;;;;;;;;;;;;;;;18.62;61.65;100663.84;5076405;28;1040;-36
2022/07/01 07:57:08;;;;;;;;;;;;;;;18.62;61.83;100670.00;5076106;28;831;-31
2022/07/01 07:59:34;;;;;;;;;;;;;;;18.53;62.25;100670.78;5076099;28;1132;-36
2022/07/01 08:01:59;;;;;;;;;;;;;;;21.15;54.98;100671.25;5076227;28;1983;-32
2022/07/01 08:04:24;;;;;;;;;;;;;;;20.34;54.71;100671.41;5076566;28;1052;-33
2022/07/01 08:06:49;;;;;;;;;;;;;;;18.46;60.37;100665.97;5075795;28;1523;-32
2022/07/01 08:09:15;;;;;;;;;;;;;;;18.13;61.98;100670.44;5079355;28;1155;-33
2022/07/01 08:11:40;;;;;;;;;;;;;;;19.87;59.92;100675.50;5085585;28;969;-31
2022/07/01 08:14:05;;;;;;;;;;;;;;;21.84;51.77;100671.00;5076421;28;1100;-34
2022/07/01 08:16:30;;;;;;;;;;;;;;;19.35;59.05;100673.78;5076421;28;997;-34
2022/07/01 08:18:56;;;;;;;;;;;;;;;18.71;61.06;100669.25;5076192;28;1052;-33
2022/07/01 08:21:21;;;;;;;;;;;;;;;18.66;61.48;100671.47;5075586;28;1963;-33
2022/07/01 08:23:47;;;;;;;;;;;;;;;19.32;63.07;100671.34;5075767;28;1021;-36
2022/07/01 08:26:14;;;;;;;;;;;;;;;21.93;52.02;100676.47;5076300;28;1140;-32
2022/07/01 08:28:39;;;;;;;;;;;;;;;19.74;57.71;100666.88;5076661;28;985;-31
2022/07/01 08:31:04;;;;;;;;;;;;;;;19.15;59.40;100673.63;5076064;28;1151;-34
2022/07/01 08:33:29;;;;;;;;;;;;;;;18.82;58.77;100668.34;5075954;28;1060;-32
2022/07/01 08:35:55;;;;;;;;;;;;;;;18.80;58.60;100672.13;5081613;28;845;-31
2022/07/01 08:38:20;;;;;;;;;;;;;;;18.81;60.36;100671.13;5075951;28;1000;-33
2022/07/01 08:40:45;;;;;;;;;;;;;;;21.46;53.00;100670.16;5083781;28;1040;-33
2022/07/01 08:43:11;;;;;;;;;;;;;;;20.04;53.40;100674.03;5058144;28;1962;-31
2022/07/01 08:45:37;;;;;;;;;;;;;;;19.00;56.95;100675.75;5079450;28;1001;-35
2022/07/01 08:48:02;;;;;;;;;;;;;;;18.73;57.49;100667.28;5079722;28;994;-35
2022/07/01 08:50:28;;;;;;;;;;;;;;;18.57;57.93;100681.06;5079523;28;985;-33
2022/07/01 08:52:54;;;;;;;;;;;;;;;18.60;57.91;100675.47;5083716;28;981;-35
2022/07/01 08:55:19;;;;;;;;;;;;;;;18.68;57.95;100674.84;5079406;28;1135;-34
2022/07/01 08:57:45;;;;;;;;;;;;;;;19.92;59.77;100680.44;5079539;28;982;-36
2022/07/01 09:00:10;;;;;;;;;;;;;;;22.41;49.00;100682.50;5094099;28;1175;-35
2022/07/01 09:02:54;;;;;;;;;;;;;;;19.28;55.26;100676.13;5089852;28;1902;-36
2022/07/01 09:05:19;;;;;;;;;;;;;;;18.89;56.58;100675.81;5079357;28;1056;-36
2022/07/01 09:07:45;;;;;;;;;;;;;;;18.72;57.01;100676.28;5079393;28;1238;-34
2022/07/01 09:10:18;;;;;;;;;;;;;;;18.85;56.91;100676.09;5079164;28;1060;-33
2022/07/01 09:12:43;;;;;;;;;;;;;;;18.71;57.70;100679.06;5061497;28;958;-35
2022/07/01 09:15:38;;;;;;;;;;;;;;;18.65;57.71;100685.75;5079499;28;1088;-32
2022/07/01 09:18:04;;;;;;;;;;;;;;;21.64;51.53;100687.13;5063148;28;1162;-35
2022/07/01 09:20:34;;;;;;;;;;;;;;;19.66;53.50;100688.91;5087095;28;974;-37
2022/07/01 09:23:00;;;;;;;;;;;;;;;18.79;56.90;100681.06;5079319;28;2374;-32
2022/07/01 09:25:33;;;;;;;;;;;;;;;18.59;57.45;100691.59;5079842;28;2247;-32
2022/07/01 09:28:05;;;;;;;;;;;;;;;18.57;57.69;100690.84;5076742;28;1954;-32
2022/07/01 09:30:30;;;;;;;;;;;;;;;18.52;58.05;100685.91;5060203;28;2091;-32
2022/07/01 09:33:14;;;;;;;;;;;;;;;18.64;58.09;100681.41;5079417;28;2008;-31
2022/07/01 09:35:40;;;;;;;;;;;;;;;20.47;57.03;100691.69;5078563;28;1836;-33
2022/07/01 09:38:07;;;;;;;;;;;;;;;21.47;51.40;100685.25;5078447;28;1899;-36
2022/07/01 09:40:50;;;;;;;;;;;;;;;18.89;56.03;100686.47;5078963;28;1060;-33
2022/07/01 09:43:16;;;;;;;;;;;;;;;18.45;57.46;100682.91;5084739;28;1963;-34
2022/07/01 09:45:53;;;;;;;;;;;;;;;18.45;57.69;100684.75;5078954;28;1001;-33
2022/07/01 09:48:18;;;;;;;;;;;;;;;18.58;57.86;100692.56;5078871;28;1246;-32
2022/07/01 09:50:44;;;;;;;;;;;;;;;18.56;58.03;100694.50;5078518;28;981;-31
2022/07/01 09:53:10;;;;;;;;;;;;;;;18.53;58.22;100689.44;5083253;28;1079;-31
2022/07/01 09:55:35;;;;;;;;;;;;;;;19.83;59.57;100690.13;5090975;28;1043;-35
2022/07/01 09:58:00;;;;;;;;;;;;;;;22.50;49.50;100686.91;5060259;28;1068;-36
2022/07/01 10:00:26;;;;;;;;;;;;;;;19.09;55.47;100685.66;5078068;28;992;-35
2022/07/01 10:02:52;;;;;;;;;;;;;;;18.46;57.33;100686.44;5078262;28;1918;-34
2022/07/01 10:05:17;;;;;;;;;;;;;;;18.46;57.51;100687.28;5077346;28;981;-30
2022/07/01 10:07:43;;;;;;;;;;;;;;;18.49;57.62;100688.84;5064810;28;2580;-32
2022/07/01 10:10:11;;;;;;;;;;;;;;;18.56;57.62;100690.03;5078443;28;1033;-35
2022/07/01 10:12:40;;;;;;;;;;;;;;;18.61;58.19;100684.31;5078296;28;993;-33
2022/07/01 10:15:07;;;;;;;;;;;;;;;19.38;62.64;100692.19;5078494;28;1001;-35
2022/07/01 10:17:36;;;;;;;;;;;;;;;22.24;50.39;100693.03;5060159;28;1489;-33
2022/07/01 10:20:09;;;;;;;;;;;;;;;19.29;54.95;100695.63;5078240;28;1116;-35
2022/07/01 10:22:35;;;;;;;;;;;;;;;18.54;57.20;100691.13;5059011;28;1902;-33
2022/07/01 10:25:18;;;;;;;;;;;;;;;21.40;53.39;100698.38;5083854;28;1072;-35
2022/07/01 10:27:43;;;;;;;;;;;;;;;23.07;52.28;100697.47;5093842;28;1123;-31
2022/07/01 10:30:12;;;;;;;;;;;;;;;24.37;44.60;100702.97;5086656;28;842;-35
2022/07/01 10:32:41;;;;;;;;;;;;;;;24.22;45.80;100703.63;5077585;28;991;-33
2022/07/01 10:35:07;;;;;;;;;;;;;;;25.03;46.80;100704.84;5077693;28;985;-34
2022/07/01 10:41:56;;;;;;;;;;;;;;;25.05;43.40;100702.84;5097037;27;1339;-24
2022/07/01 10:46:45;;;;;;;;;;;;;;;25.27;42.18;100695.91;5071891;28;1421;-37
2022/07/01 10:49:14;;;;;;;;;;;;;;;22.90;48.74;100696.50;5068982;28;983;-38
2022/07/01 10:51:52;;;;;;;;;;;;;;;21.01;54.62;100696.59;5069177;28;1181;-38
2022/07/01 10:54:48;;;;;;;;;;;;;;;20.45;56.20;100699.84;5072672;28;1048;-36
2022/07/01 10:57:34;;;;;;;;;;;;;;;23.83;47.54;100695.06;5059817;27;1381220;-40
2022/07/01 11:00:00;;;;;;;;;;;;;;;24.89;43.24;100701.81;5079169;28;1141;-39
2022/07/01 11:02:28;;;;;;;;;;;;;;;25.53;41.57;100692.13;5103016;28;1027;-31
2022/07/01 11:04:57;;;;;;;;;;;;;;;25.83;40.86;100694.22;5104135;28;1115;-34
2022/07/01 11:07:26;;;;;;;;;;;;;;;26.00;40.33;100689.59;5100188;28;2575;-30
2022/07/01 11:09:51;;;;;;;;;;;;;;;26.08;39.76;100691.41;5101946;28;1055;-35
2022/07/01 11:12:17;;;;;;;;;;;;;;;26.38;39.11;100691.59;5093861;28;1037;-30
2022/07/01 11:14:42;;;;;;;;;;;;;;;26.63;39.39;100685.16;5093844;28;1052;-32
2022/07/01 11:17:08;;;;;;;;;;;;;;;26.69;39.07;100679.06;5075660;28;1909;-31
2022/07/01 11:19:33;;;;;;;;;;;;;;;26.57;40.76;100683.19;5093889;28;1226;-34
2022/07/01 11:21:58;;;;;;;;;;;;;;;26.67;39.51;100683.78;5102039;28;883;-38
2022/07/01 11:24:23;;;;;;;;;;;;;;;26.57;39.67;100681.34;5098401;28;1439;-43
2022/07/01 11:26:49;;;;;;;;;;;;;;;26.61;38.74;100685.34;5104990;28;1079;-43
2022/07/01 11:29:15;;;;;;;;;;;;;;;26.51;39.08;100682.88;5107258;28;956;-42
2022/07/01 11:31:40;;;;;;;;;;;;;;;26.93;38.75;100685.22;5076033;28;1083;-44
2022/07/01 11:34:05;;;;;;;;;;;;;;;26.96;39.62;100676.75;5093405;28;1047;-42
2022/07/01 11:39:22;;;;;;;;;;;;;;;26.96;37.71;100675.94;5089004;28;949;-41
2022/07/01 11:41:47;;;;;;;;;;;;;;;27.07;38.66;100683.63;5095735;28;1084;-41
2022/07/01 11:44:13;;;;;;;;;;;;;;;27.08;38.02;100679.88;5074901;28;1290;-42
2022/07/01 11:46:38;;;;;;;;;;;;;;;27.18;38.43;100674.22;5088992;28;1202;-40
2022/07/01 11:49:10;;;;;;;;;;;;;;;27.25;39.38;100675.16;5093521;28;961;-43
2022/07/01 11:51:35;;;;;;;;;;;;;;;27.29;39.09;100672.09;5093098;28;1194;-44
2022/07/01 11:54:01;;;;;;;;;;;;;;;27.29;38.22;100672.09;5075209;28;1191;-42
2022/07/01 11:56:34;;;;;;;;;;;;;;;27.29;37.96;100664.81;5093034;28;1946;-45
2022/07/01 11:59:01;;;;;;;;;;;;;;;27.35;38.27;100663.22;5083649;28;1175;-41
2022/07/01 12:01:33;;;;;;;;;;;;;;;27.34;37.03;100662.38;5090810;28;1205;-42
2022/07/01 12:03:59;;;;;;;;;;;;;;;27.35;37.16;100669.47;5082939;28;1228;-42
2022/07/01 12:06:25;;;;;;;;;;;;;;;27.32;37.01;100663.59;5091670;28;829;-42
2022/07/01 12:08:50;;;;;;;;;;;;;;;27.49;37.62;100665.06;5079659;28;957;-41
2022/07/01 12:11:16;;;;;;;;;;;;;;;27.65;37.64;100667.75;5061796;28;1036;-40
2022/07/01 12:13:41;;;;;;;;;;;;;;;27.59;37.17;100664.78;5082122;28;1214;-40
2022/07/01 12:16:10;;;;;;;;;;;;;;;27.68;37.66;100664.66;5067212;28;1964;-40
2022/07/01 12:18:35;;;;;;;;;;;;;;;27.77;37.44;100668.16;5078500;28;954;-38
2022/07/01 12:21:02;;;;;;;;;;;;;;;27.72;36.85;100663.31;5078173;28;1045;-41
2022/07/01 12:23:27;;;;;;;;;;;;;;;27.69;37.78;100661.84;5078313;28;1009;-43
2022/07/01 12:25:54;;;;;;;;;;;;;;;27.74;37.22;100661.28;5078875;28;1124;-42
2022/07/01 12:28:27;;;;;;;;;;;;;;;27.75;37.28;100652.13;5071797;28;1001;-43
2022/07/01 12:31:06;;;;;;;;;;;;;;;27.65;37.44;100659.66;5078761;28;1488;-43
2022/07/01 12:33:32;;;;;;;;;;;;;;;27.57;37.34;100661.44;5055916;28;1005;-43
2022/07/01 12:35:57;;;;;;;;;;;;;;;27.62;37.31;100647.38;5079355;28;1953;-42
2022/07/01 12:38:22;;;;;;;;;;;;;;;27.59;36.87;100645.88;5070833;28;1146;-41
2022/07/01 12:40:48;;;;;;;;;;;;;;;27.65;36.89;100646.97;5077991;28;1040;-41
2022/07/01 12:43:23;;;;;;;;;;;;;;;27.71;36.92;100643.56;5078146;28;1116;-40
2022/07/01 12:45:48;;;;;;;;;;;;;;;27.92;37.78;100644.63;5078813;28;973;-41
2022/07/01 12:48:13;;;;;;;;;;;;;;;28.10;37.88;100640.66;5078479;28;1132;-41
2022/07/01 12:50:38;;;;;;;;;;;;;;;28.07;38.10;100641.03;5084105;28;981;-41
2022/07/01 12:53:04;;;;;;;;;;;;;;;27.97;37.40;100647.59;5083557;28;1183;-40
2022/07/01 12:55:33;;;;;;;;;;;;;;;28.07;37.43;100654.56;5077606;28;1897;-41
2022/07/01 12:58:01;;;;;;;;;;;;;;;28.06;36.24;100650.19;5077964;28;1036;-42
2022/07/01 13:00:27;;;;;;;;;;;;;;;28.12;35.97;100660.22;5078274;28;1076;-39
2022/07/01 13:02:56;;;;;;;;;;;;;;;28.13;36.39;100667.28;5092667;28;1005;-40